Terminal Aerodrome Forecast
Issued by NWS Detroit/Pontiac, MI

Home | Current Version | Previous Version | Text Only | Print | Product List | Glossary On
Versions: 1 2 3 4 5 6 7 8 9 10 11 12 13 14 15 16 17 18 19 20 21 22 23 24 25 26 27 28 29 30 31 32
000
FTUS43 KDTX 251026 AAB
TAFDTW
TAF AMD
KDTW 251026Z 2510/2612 25013KT P6SM SCT025 BKN100
     FM251100 25013G20KT P6SM SCT025 BKN045
      TEMPO 2511/2515 6SM -RASN OVC025
     FM251500 27018G30KT P6SM BKN045
     FM260100 24013G20KT P6SM SCT025 BKN035
     FM260600 23012KT P6SM SCT035 BKN060=

USA.gov is the U.S. government's official web portal to all federal, state and local government web resources and services.